createdAt,value
2023-05-04T00:03:02.029Z,10.60
2023-05-04T00:08:18.002Z,10.60
2023-05-04T00:13:35.278Z,10.50
2023-05-04T00:18:51.099Z,10.50
2023-05-04T00:24:07.249Z,10.50
2023-05-04T00:29:23.129Z,10.60
2023-05-04T00:34:38.993Z,10.60
2023-05-04T00:39:55.089Z,10.70
2023-05-04T00:45:10.916Z,10.70
2023-05-04T00:50:27.939Z,10.80
2023-05-04T00:55:43.573Z,10.80
2023-05-04T01:01:00.036Z,10.80
2023-05-04T01:06:31.638Z,10.80
2023-05-04T01:11:53.311Z,10.70
2023-05-04T01:17:09.525Z,10.60
2023-05-04T01:22:25.204Z,10.70
2023-05-04T01:27:50.574Z,10.60
2023-05-04T01:33:07.392Z,10.50
2023-05-04T01:38:23.689Z,10.60
2023-05-04T01:43:39.372Z,10.60
2023-05-04T01:48:55.942Z,10.60
2023-05-04T01:54:11.967Z,10.70
2023-05-04T01:59:27.820Z,10.60
2023-05-04T02:04:43.773Z,10.60
2023-05-04T02:09:59.675Z,10.50
2023-05-04T02:15:15.668Z,10.40
2023-05-04T02:20:31.635Z,10.20
2023-05-04T02:25:47.434Z,10.30
2023-05-04T02:31:03.519Z,10.40
2023-05-04T02:36:19.472Z,10.30
2023-05-04T02:41:35.413Z,10.30
2023-05-04T02:46:51.218Z,10.20
2023-05-04T02:52:07.210Z,10.20
2023-05-04T02:57:23.217Z,10.20
2023-05-04T03:02:39.279Z,10.20
2023-05-04T03:07:55.257Z,10.20
2023-05-04T03:13:11.191Z,10.20
2023-05-04T03:18:27.050Z,10.10
2023-05-04T03:23:43.210Z,10.00
2023-05-04T03:28:59.119Z,10.20
2023-05-04T03:34:15.223Z,10.20
2023-05-04T03:39:31.041Z,10.20
2023-05-04T03:44:47.614Z,10.20
2023-05-04T03:50:03.981Z,10.10
2023-05-04T03:55:20.072Z,10.10
2023-05-04T04:00:36.049Z,10.20
2023-05-04T04:05:52.100Z,10.30
2023-05-04T04:11:08.010Z,10.30
2023-05-04T04:16:23.644Z,10.30
2023-05-04T04:21:39.279Z,10.40
2023-05-04T04:26:55.010Z,10.30
2023-05-04T04:32:11.295Z,10.20
2023-05-04T04:37:27.117Z,10.20
2023-05-04T04:42:43.163Z,10.30
2023-05-04T04:47:58.951Z,10.50
2023-05-04T04:53:14.845Z,10.50
2023-05-04T04:58:30.214Z,10.50
2023-05-04T05:03:46.360Z,10.50
2023-05-04T05:09:02.250Z,10.50
2023-05-04T05:14:17.900Z,10.60
2023-05-04T05:19:37.440Z,10.50
2023-05-04T05:24:52.976Z,10.80
2023-05-04T05:30:09.202Z,10.90
2023-05-04T05:35:25.146Z,11.30
2023-05-04T05:40:41.038Z,11.40
2023-05-04T05:45:57.728Z,11.30
2023-05-04T05:51:13.822Z,11.50
2023-05-04T05:56:29.874Z,11.60
2023-05-04T06:01:45.801Z,11.70
2023-05-04T06:07:01.847Z,12.60
2023-05-04T06:12:17.785Z,14.10
2023-05-04T06:17:34.166Z,16.50
2023-05-04T06:22:49.786Z,15.00
2023-05-04T06:28:06.398Z,15.20
2023-05-04T06:33:22.103Z,16.30
2023-05-04T06:38:39.186Z,14.90
2023-05-04T06:43:58.200Z,13.60
2023-05-04T06:49:14.609Z,13.00
2023-05-04T06:54:31.873Z,12.70
2023-05-04T06:59:47.840Z,13.70
2023-05-04T07:05:04.195Z,15.50
2023-05-04T07:10:20.048Z,16.40
2023-05-04T07:15:35.958Z,16.00
2023-05-04T07:20:52.931Z,15.60
2023-05-04T07:26:09.959Z,14.70
2023-05-04T07:31:27.518Z,14.80
2023-05-04T07:36:44.319Z,16.60
2023-05-04T07:42:00.492Z,19.10
2023-05-04T07:47:16.373Z,18.50
2023-05-04T07:52:33.084Z,17.10
2023-05-04T07:57:48.684Z,19.20
2023-05-04T08:03:04.942Z,20.90
2023-05-04T08:08:21.782Z,22.30
2023-05-04T08:13:37.616Z,21.10
2023-05-04T08:18:54.055Z,19.60
2023-05-04T08:24:10.005Z,19.50
2023-05-04T08:29:25.973Z,21.70
2023-05-04T08:34:41.920Z,22.10
2023-05-04T08:39:57.942Z,22.20
2023-05-04T08:45:15.079Z,21.00
2023-05-04T08:50:31.071Z,22.40
2023-05-04T08:55:47.977Z,20.90
2023-05-04T09:01:07.015Z,20.60
2023-05-04T09:06:24.528Z,21.00
2023-05-04T09:11:40.602Z,21.70
2023-05-04T09:16:56.820Z,22.50
2023-05-04T09:22:19.676Z,20.90
2023-05-04T09:27:35.215Z,20.10
2023-05-04T09:32:51.301Z,20.20
2023-05-04T09:38:07.581Z,19.50
2023-05-04T09:43:24.824Z,20.00
2023-05-04T09:48:54.298Z,19.60
2023-05-04T09:54:10.996Z,19.60
2023-05-04T09:59:32.142Z,20.10
2023-05-04T10:04:49.459Z,20.10
2023-05-04T10:10:07.413Z,19.50
2023-05-04T10:15:23.906Z,19.70
2023-05-04T10:21:06.172Z,19.50
